createdAt,value
2023-05-11T00:04:29.280Z,13.10
2023-05-11T00:24:28.972Z,10.80
2023-05-11T00:44:28.683Z,12.40
2023-05-11T01:04:28.416Z,14.10
2023-05-11T01:24:28.140Z,13.90
2023-05-11T01:44:27.893Z,12.70
2023-05-11T02:04:27.554Z,9.20
2023-05-11T02:24:27.273Z,11.50
2023-05-11T02:44:26.991Z,13.50
2023-05-11T03:04:26.797Z,14.10
2023-05-11T03:24:26.406Z,16.70
2023-05-11T03:44:26.127Z,17.60
2023-05-11T04:04:25.945Z,14.10
2023-05-11T04:24:25.563Z,13.40
2023-05-11T04:44:25.298Z,16.90
2023-05-11T05:04:25.011Z,14.20
2023-05-11T05:24:24.727Z,15.30
2023-05-11T05:44:24.447Z,18.60
2023-05-11T06:04:24.264Z,17.90
2023-05-11T06:24:23.895Z,12.40
2023-05-11T06:44:23.629Z,14.00
2023-05-11T07:04:23.379Z,15.90
2023-05-11T07:24:23.078Z,18.80
2023-05-11T07:44:22.804Z,15.60
2023-05-11T08:04:22.514Z,8.80
2023-05-11T08:24:22.247Z,9.40
2023-05-11T08:44:22.005Z,8.30
2023-05-11T09:04:21.731Z,9.20
2023-05-11T09:24:21.547Z,6.80
2023-05-11T09:44:21.186Z,6.70
2023-05-11T10:04:23.510Z,5.20
2023-05-11T10:24:20.785Z,6.40
2023-05-11T10:44:20.302Z,5.40
2023-05-11T11:04:20.053Z,7.50
2023-05-11T11:24:19.780Z,6.90
2023-05-11T11:44:19.468Z,7.30
2023-05-11T12:04:19.445Z,6.90
2023-05-11T12:24:18.922Z,9.40
2023-05-11T12:44:18.649Z,6.80
2023-05-11T13:04:18.401Z,6.20
2023-05-11T13:24:18.143Z,6.90
2023-05-11T13:44:17.891Z,6.20
2023-05-11T14:04:17.556Z,6.50
2023-05-11T14:24:17.281Z,6.10
2023-05-11T14:44:17.009Z,5.90
2023-05-11T15:04:17.044Z,5.90
2023-05-11T15:24:16.625Z,3.10
2023-05-11T15:44:16.361Z,3.50
2023-05-11T16:04:15.908Z,5.80
2023-05-11T16:24:15.600Z,6.20
2023-05-11T16:44:15.348Z,7.30
2023-05-11T17:04:15.137Z,7.40
2023-05-11T17:24:14.904Z,4.50
2023-05-11T17:44:14.573Z,9.30
2023-05-11T18:04:14.296Z,10.70
2023-05-11T18:24:13.969Z,8.60
2023-05-11T18:44:13.764Z,7.80
2023-05-11T19:04:13.463Z,10.20
2023-05-11T19:24:13.150Z,10.50
2023-05-11T19:44:12.907Z,12.50
2023-05-11T20:04:12.580Z,23.20
2023-05-11T20:24:12.356Z,8.80
2023-05-11T20:44:12.026Z,9.40
2023-05-11T21:04:11.757Z,11.00
2023-05-11T21:24:11.478Z,10.40
2023-05-11T21:44:11.258Z,7.30
2023-05-11T22:04:11.032Z,8.60
2023-05-11T22:24:10.665Z,7.60
2023-05-11T22:44:10.415Z,8.10
2023-05-11T23:04:10.129Z,10.50
2023-05-11T23:24:09.866Z,12.70
2023-05-11T23:44:09.562Z,14.70
